Time;durP1;ratioP1;P1;durP2;ratioP2;P2;SDS_P1;SDS_P2;PMS_P1;PMS_P2;Temp;Humidity;BMP_temperature;BMP_pressure;BME280_temperature;BME280_humidity;BME280_pressure;Samples;Min_cycle;Max_cycle;Signal;HPM_P1;HPM_P2
2023/07/28 00:00:09;;;;;;;;;;;24.80;93.90;24.90;99034.00;;;;337766;28;82531;-90
2023/07/28 00:00:21;;;;;;;;;;;24.80;93.80;25.00;99033.00;;;;335220;28;93002;-90
2023/07/28 00:00:33;;;;;;;;;;;24.80;93.70;25.00;99028.00;;;;336821;28;83409;-90
2023/07/28 00:00:45;;;;;;;;;;;24.80;93.70;25.00;99033.00;;;;338644;28;97086;-91
2023/07/28 00:00:57;;;;;;;;;;;24.80;93.60;25.00;99036.00;;;;335504;29;83502;-90
2023/07/28 00:01:08;;;;;;;;;;;24.80;93.50;25.00;99030.00;;;;336924;28;96507;-91
2023/07/28 00:01:20;;;;;;;;;;;24.80;93.50;24.90;99040.00;;;;339441;28;83476;-90
2023/07/28 00:01:32;;;;;;;;;;;24.80;93.60;24.90;99029.00;;;;338501;28;97980;-90
2023/07/28 00:01:44;;;;;;;;;;;24.80;93.90;24.80;99038.00;;;;336816;28;83380;-90
2023/07/28 00:01:56;;;;;;;;;;;24.80;93.90;24.80;99033.00;;;;333486;29;96409;-90
2023/07/28 00:02:08;;;;;;;;;;;24.80;94.00;24.90;99031.00;;;;338169;28;83385;-90
2023/07/28 00:02:20;;;;;;;;;;;24.80;93.80;24.80;99024.00;;;;338773;28;95301;-91
2023/07/28 00:02:31;;;;;;;;;;;24.80;93.70;25.00;99035.00;;;;335508;29;82490;-90
2023/07/28 00:02:43;;;;;;;;;;;24.80;93.70;24.90;99039.00;;;;337418;28;94417;-90
2023/07/28 00:02:55;;;;;;;;;;;24.80;93.90;24.90;99027.00;;;;338164;28;83600;-90
2023/07/28 00:03:07;;;;;;;;;;;24.80;93.80;24.90;99034.00;;;;334901;28;96302;-91
2023/07/28 00:03:19;;;;;;;;;;;24.80;93.70;24.80;99035.00;;;;339551;28;83370;-90
2023/07/28 00:03:31;;;;;;;;;;;24.80;93.70;24.80;99034.00;;;;335947;28;96410;-90
2023/07/28 00:03:43;;;;;;;;;;;24.80;93.80;24.80;99032.00;;;;334178;29;83455;-90
2023/07/28 00:03:55;;;;;;;;;;;24.80;94.00;24.70;99033.00;;;;337295;28;95534;-90
2023/07/28 00:04:09;;;;;;;;;;;24.80;94.00;24.60;99033.00;;;;336874;28;83289;-91
2023/07/28 00:04:21;;;;;;;;;;;24.80;94.20;24.70;99035.00;;;;336055;28;95618;-90
2023/07/28 00:04:36;;;;;;;;;;;24.80;94.00;24.70;99030.00;;;;338117;28;83398;-90
2023/07/28 00:04:48;;;;;;;;;;;24.80;94.00;24.80;99042.00;;;;337438;28;96585;-90
2023/07/28 00:04:59;;;;;;;;;;;24.80;94.10;24.80;99034.00;;;;339358;28;83394;-90
2023/07/28 00:05:11;;;;;;;;;;;24.80;94.00;24.70;99033.00;;;;338391;28;96470;-90
2023/07/28 00:05:23;;;;;;;;;;;24.80;94.10;24.80;99038.00;;;;336753;28;82517;-90
2023/07/28 00:05:36;;;;;;;;;;;24.80;94.00;24.70;99049.00;;;;339866;28;97444;-90
2023/07/28 00:05:48;;;;;;;;;;;24.80;94.00;24.70;99038.00;;;;336866;28;83408;-90
2023/07/28 00:05:59;;;;;;;;;;;24.80;94.10;24.80;99040.00;;;;336123;28;96625;-90
2023/07/28 00:06:11;;;;;;;;;;;24.80;94.00;24.80;99043.00;;;;340870;28;83424;-90
2023/07/28 00:06:23;;;;;;;;;;;24.80;94.10;24.70;99034.00;;;;337368;28;96722;-90
2023/07/28 00:06:35;;;;;;;;;;;24.80;93.90;24.80;99043.00;;;;339531;28;82457;-90
2023/07/28 00:06:47;;;;;;;;;;;24.80;93.80;24.80;99036.00;;;;337466;28;95432;-90
2023/07/28 00:06:59;;;;;;;;;;;24.80;93.70;24.80;99042.00;;;;334150;29;82567;-90
2023/07/28 00:07:10;;;;;;;;;;;24.80;93.60;24.70;99048.00;;;;336168;28;95377;-91
2023/07/28 00:07:22;;;;;;;;;;;24.80;93.90;24.90;99038.00;;;;336766;28;83433;-90
2023/07/28 00:07:36;;;;;;;;;;;24.80;93.90;24.90;99051.00;;;;334102;28;96608;-91
2023/07/28 00:07:47;;;;;;;;;;;24.80;93.80;24.70;99049.00;;;;336713;28;83523;-90
2023/07/28 00:07:59;;;;;;;;;;;24.80;94.10;24.60;99043.00;;;;334739;29;96565;-90
2023/07/28 00:08:11;;;;;;;;;;;24.80;94.20;24.80;99048.00;;;;338118;28;82627;-91
2023/07/28 00:08:23;;;;;;;;;;;24.80;94.10;24.80;99043.00;;;;337381;28;93991;-90
2023/07/28 00:08:35;;;;;;;;;;;24.80;94.10;24.70;99053.00;;;;338221;28;82620;-90
2023/07/28 00:08:46;;;;;;;;;;;24.80;94.10;24.60;99054.00;;;;338721;28;93850;-90
2023/07/28 00:08:58;;;;;;;;;;;24.80;94.20;24.60;99048.00;;;;337552;28;84779;-90
2023/07/28 00:09:10;;;;;;;;;;;24.80;94.40;24.60;99055.00;;;;337278;28;96437;-91
2023/07/28 00:09:25;;;;;;;;;;;24.80;94.30;24.70;99052.00;;;;339519;28;83410;-90
2023/07/28 00:09:37;;;;;;;;;;;24.80;94.40;24.70;99054.00;;;;338549;28;97701;-90
2023/07/28 00:09:49;;;;;;;;;;;24.80;94.20;24.70;99055.00;;;;339174;28;82603;-90
2023/07/28 00:10:01;;;;;;;;;;;24.80;94.20;24.60;99058.00;;;;336059;28;96605;-91
2023/07/28 00:10:13;;;;;;;;;;;24.80;94.40;24.60;99057.00;;;;338019;28;83476;-91
2023/07/28 00:10:24;;;;;;;;;;;24.70;94.30;24.70;99051.00;;;;338736;28;92756;-90
2023/07/28 00:10:42;;;;;;;;;;;24.70;94.10;24.80;99055.00;;;;336022;28;83552;-90
2023/07/28 00:10:54;;;;;;;;;;;24.70;94.20;24.60;99057.00;;;;334566;29;96884;-90
2023/07/28 00:11:13;;;;;;;;;;;24.70;94.40;24.70;99056.00;;;;336753;28;83321;-90
2023/07/28 00:11:25;;;;;;;;;;;24.70;94.50;24.70;99057.00;;;;337349;28;96611;-90
2023/07/28 00:11:37;;;;;;;;;;;24.70;94.40;24.60;99062.00;;;;336752;28;82515;-90
2023/07/28 00:11:49;;;;;;;;;;;24.70;94.50;24.50;99054.00;;;;339958;28;97421;-91
2023/07/28 00:12:01;;;;;;;;;;;24.70;94.50;24.70;99053.00;;;;339326;28;83422;-90
2023/07/28 00:12:12;;;;;;;;;;;24.70;94.50;24.70;99064.00;;;;333411;29;95743;-91
2023/07/28 00:12:24;;;;;;;;;;;24.70;94.70;24.70;99059.00;;;;336851;28;83521;-90
2023/07/28 00:12:36;;;;;;;;;;;24.70;94.30;24.60;99062.00;;;;336773;28;96886;-91
2023/07/28 00:12:48;;;;;;;;;;;24.70;94.30;24.60;99058.00;;;;338170;28;83394;-91
2023/07/28 00:13:02;;;;;;;;;;;24.70;94.60;24.70;99058.00;;;;341290;28;95310;-90
2023/07/28 00:13:14;;;;;;;;;;;24.70;94.50;24.60;99059.00;;;;338086;28;82508;-90
2023/07/28 00:13:25;;;;;;;;;;;24.70;94.90;24.60;99047.00;;;;337387;28;96302;-91
2023/07/28 00:13:38;;;;;;;;;;;24.70;94.60;24.60;99061.00;;;;340772;28;82600;-90
2023/07/28 00:13:50;;;;;;;;;;;24.70;94.70;24.70;99060.00;;;;338658;28;97776;-90
2023/07/28 00:14:02;;;;;;;;;;;24.70;94.60;24.70;99055.00;;;;338066;28;83518;-91
2023/07/28 00:14:14;;;;;;;;;;;24.70;94.40;24.80;99057.00;;;;337278;28;96818;-90
2023/07/28 00:14:26;;;;;;;;;;;24.70;94.40;24.70;99053.00;;;;335502;29;83353;-90
2023/07/28 00:14:38;;;;;;;;;;;24.70;94.60;24.80;99065.00;;;;337213;28;96360;-90
2023/07/28 00:14:50;;;;;;;;;;;24.70;94.30;24.60;99066.00;;;;336876;28;82574;-90
2023/07/28 00:15:02;;;;;;;;;;;24.70;94.60;24.60;99058.00;;;;337306;28;96670;-91
2023/07/28 00:15:14;;;;;;;;;;;24.70;94.80;24.50;99059.00;;;;336853;28;82492;-91
2023/07/28 00:15:26;;;;;;;;;;;24.60;94.90;24.50;99053.00;;;;334783;29;96197;-91
2023/07/28 00:15:38;;;;;;;;;;;24.60;94.80;24.60;99059.00;;;;336686;28;83336;-91
2023/07/28 00:15:49;;;;;;;;;;;24.60;94.80;24.60;99061.00;;;;337268;28;97571;-91
2023/07/28 00:16:01;;;;;;;;;;;24.60;94.80;24.60;99064.00;;;;340750;28;83553;-90
2023/07/28 00:16:14;;;;;;;;;;;24.60;94.70;24.60;99060.00;;;;338664;28;94952;-90
2023/07/28 00:16:26;;;;;;;;;;;24.60;94.90;24.50;99057.00;;;;338103;28;83459;-90
2023/07/28 00:16:38;;;;;;;;;;;24.60;94.90;24.60;99055.00;;;;337377;28;96526;-90
2023/07/28 00:16:50;;;;;;;;;;;24.60;94.80;24.70;99061.00;;;;336840;28;83418;-90
2023/07/28 00:17:02;;;;;;;;;;;24.70;94.70;24.60;99060.00;;;;337396;28;92791;-91
2023/07/28 00:17:14;;;;;;;;;;;24.60;94.70;24.60;99063.00;;;;339424;28;83395;-90
2023/07/28 00:17:26;;;;;;;;;;;24.60;94.70;24.60;99069.00;;;;338510;28;95800;-91
2023/07/28 00:17:38;;;;;;;;;;;24.60;94.60;24.70;99063.00;;;;338009;28;82590;-91
2023/07/28 00:17:49;;;;;;;;;;;24.70;94.60;24.60;99062.00;;;;337315;28;96441;-91
2023/07/28 00:18:01;;;;;;;;;;;24.60;94.70;24.70;99061.00;;;;338047;28;83473;-90
2023/07/28 00:18:13;;;;;;;;;;;24.70;94.50;24.60;99054.00;;;;337361;28;93684;-90
2023/07/28 00:18:25;;;;;;;;;;;24.60;95.10;24.60;99063.00;;;;336792;28;82475;-91
2023/07/28 00:18:37;;;;;;;;;;;24.60;94.90;24.60;99062.00;;;;335905;28;95970;-90
2023/07/28 00:18:49;;;;;;;;;;;24.60;94.90;24.50;99066.00;;;;340311;28;82587;-90
2023/07/28 00:19:00;;;;;;;;;;;24.60;94.90;24.50;99068.00;;;;337231;28;96832;-90
2023/07/28 00:19:12;;;;;;;;;;;24.60;95.00;24.50;99060.00;;;;336835;28;83409;-91
2023/07/28 00:19:24;;;;;;;;;;;24.60;95.00;24.50;99061.00;;;;338705;28;96211;-90
2023/07/28 00:19:36;;;;;;;;;;;24.60;95.10;24.50;99068.00;;;;336638;28;83453;-90
2023/07/28 00:19:47;;;;;;;;;;;24.60;95.10;24.50;99064.00;;;;336086;28;95368;-90
2023/07/28 00:19:59;;;;;;;;;;;24.60;95.10;24.50;99069.00;;;;335485;29;83476;-90
2023/07/28 00:20:11;;;;;;;;;;;24.60;95.10;24.40;99065.00;;;;337336;28;95393;-90
2023/07/28 00:20:23;;;;;;;;;;;24.60;95.20;24.50;99064.00;;;;335398;29;82624;-90
2023/07/28 00:20:35;;;;;;;;;;;24.60;95.20;24.60;99068.00;;;;334742;29;95302;-90
2023/07/28 00:20:46;;;;;;;;;;;24.60;95.00;24.60;99062.00;;;;335573;29;83423;-90
2023/07/28 00:20:58;;;;;;;;;;;24.60;95.10;24.60;99076.00;;;;335944;28;95655;-90
2023/07/28 00:21:10;;;;;;;;;;;24.60;95.10;24.60;99074.00;;;;337833;28;82658;-91
2023/07/28 00:21:22;;;;;;;;;;;24.60;95.00;24.70;99077.00;;;;336060;28;95595;-90
2023/07/28 00:21:34;;;;;;;;;;;24.60;95.00;24.60;99073.00;;;;339404;28;83515;-92
2023/07/28 00:21:45;;;;;;;;;;;24.60;95.20;24.60;99068.00;;;;335962;28;97639;-91
2023/07/28 00:21:57;;;;;;;;;;;24.60;95.20;24.60;99076.00;;;;335564;29;82545;-90
2023/07/28 00:22:09;;;;;;;;;;;24.60;95.10;24.60;99080.00;;;;337318;28;95519;-91
2023/07/28 00:22:21;;;;;;;;;;;24.60;95.20;24.50;99074.00;;;;334119;29;83539;-91
2023/07/28 00:22:32;;;;;;;;;;;24.60;95.30;24.50;99076.00;;;;338765;28;95193;-91
2023/07/28 00:22:44;;;;;;;;;;;24.50;95.30;24.40;99077.00;;;;336657;28;83397;-91
2023/07/28 00:22:56;;;;;;;;;;;24.60;95.30;24.40;99075.00;;;;336231;28;96818;-91
2023/07/28 00:23:08;;;;;;;;;;;24.60;95.30;24.50;99075.00;;;;338093;28;82559;-91
2023/07/28 00:23:20;;;;;;;;;;;24.60;95.30;24.50;99076.00;;;;336007;28;96454;-91
2023/07/28 00:23:32;;;;;;;;;;;24.50;95.40;24.40;99072.00;;;;336901;28;82465;-90
2023/07/28 00:23:44;;;;;;;;;;;24.50;95.40;24.30;99079.00;;;;337273;28;97576;-90
2023/07/28 00:23:55;;;;;;;;;;;24.50;95.50;24.40;99071.00;;;;338074;28;82597;-90
2023/07/28 00:24:07;;;;;;;;;;;24.50;95.40;24.30;99084.00;;;;337377;28;93157;-91
2023/07/28 00:24:19;;;;;;;;;;;24.50;95.60;24.30;99078.00;;;;336650;28;83488;-91
2023/07/28 00:24:31;;;;;;;;;;;24.50;95.60;24.30;99078.00;;;;337422;28;95413;-91
2023/07/28 00:24:42;;;;;;;;;;;24.50;95.60;24.30;99075.00;;;;336885;28;82376;-91
2023/07/28 00:24:54;;;;;;;;;;;24.50;95.60;24.30;99082.00;;;;335615;28;96821;-90
2023/07/28 00:25:06;;;;;;;;;;;24.50;95.50;24.40;99080.00;;;;340761;28;82594;-90
2023/07/28 00:25:18;;;;;;;;;;;24.50;95.50;24.30;99085.00;;;;337032;28;95769;-90
2023/07/28 00:25:30;;;;;;;;;;;24.50;95.60;24.50;99083.00;;;;339448;28;83296;-91
2023/07/28 00:25:42;;;;;;;;;;;24.50;95.50;24.40;99081.00;;;;335997;28;96430;-91
2023/07/28 00:25:54;;;;;;;;;;;24.50;95.40;24.40;99080.00;;;;337956;28;83465;-90
2023/07/28 00:26:06;;;;;;;;;;;24.50;95.50;24.30;99082.00;;;;336050;28;95275;-91
2023/07/28 00:26:18;;;;;;;;;;;24.50;95.40;24.40;99085.00;;;;336863;28;82542;-90
2023/07/28 00:26:29;;;;;;;;;;;24.50;95.60;24.40;99085.00;;;;335952;28;97043;-91
2023/07/28 00:26:41;;;;;;;;;;;24.50;95.60;24.30;99085.00;;;;338155;28;83284;-90
2023/07/28 00:26:53;;;;;;;;;;;24.50;95.60;24.40;99078.00;;;;336742;28;92433;-90
2023/07/28 00:27:05;;;;;;;;;;;24.50;95.50;24.40;99089.00;;;;338258;28;83327;-90
2023/07/28 00:27:18;;;;;;;;;;;24.50;95.40;24.40;99084.00;;;;336084;28;93434;-90
2023/07/28 00:27:30;;;;;;;;;;;24.50;95.60;24.30;99085.00;;;;338049;28;83478;-91
2023/07/28 00:27:41;;;;;;;;;;;24.50;95.60;24.30;99090.00;;;;335944;28;97959;-90
2023/07/28 00:27:53;;;;;;;;;;;24.50;95.80;24.30;99087.00;;;;334164;29;82552;-90
2023/07/28 00:28:05;;;;;;;;;;;24.50;95.70;24.30;99086.00;;;;336039;28;96636;-91
2023/07/28 00:28:17;;;;;;;;;;;24.50;95.60;24.30;99083.00;;;;338038;28;83347;-90
2023/07/28 00:28:29;;;;;;;;;;;24.50;95.70;24.30;99092.00;;;;333407;29;96403;-90
2023/07/28 00:28:41;;;;;;;;;;;24.50;95.70;24.30;99092.00;;;;337985;28;83431;-91
2023/07/28 00:28:52;;;;;;;;;;;24.40;95.80;24.30;99096.00;;;;336870;28;97298;-89
2023/07/28 00:29:06;;;;;;;;;;;24.40;95.80;24.30;99090.00;;;;336679;28;82602;-91
2023/07/28 00:29:18;;;;;;;;;;;24.40;95.80;24.30;99094.00;;;;336893;28;96686;-90
2023/07/28 00:29:29;;;;;;;;;;;24.40;95.90;24.20;99093.00;;;;338072;28;83472;-91
2023/07/28 00:29:41;;;;;;;;;;;24.40;95.90;24.30;99090.00;;;;337263;28;97095;-90
2023/07/28 00:29:53;;;;;;;;;;;24.40;96.30;24.30;99094.00;;;;340861;28;82384;-91
2023/07/28 00:30:06;;;;;;;;;;;24.40;96.00;24.30;99096.00;;;;337364;28;96395;-90
2023/07/28 00:30:18;;;;;;;;;;;24.40;96.00;24.30;99098.00;;;;337873;28;83519;-91
2023/07/28 00:30:31;;;;;;;;;;;24.40;96.10;24.20;99100.00;;;;337348;28;96507;-91
2023/07/28 00:30:43;;;;;;;;;;;24.40;96.00;24.30;99101.00;;;;338125;28;83471;-90
2023/07/28 00:30:54;;;;;;;;;;;24.40;96.00;24.30;99099.00;;;;338075;28;96201;-90
2023/07/28 00:31:06;;;;;;;;;;;24.40;96.00;24.30;99098.00;;;;337984;28;83549;-90
2023/07/28 00:31:18;;;;;;;;;;;24.40;96.00;24.30;99102.00;;;;337302;28;96716;-90
2023/07/28 00:31:30;;;;;;;;;;;24.40;96.00;24.30;99107.00;;;;338191;28;82623;-90
2023/07/28 00:31:41;;;;;;;;;;;24.40;96.20;24.20;99107.00;;;;335849;28;98514;-91
2023/07/28 00:31:53;;;;;;;;;;;24.40;96.20;24.40;99099.00;;;;339065;28;83194;-90
2023/07/28 00:32:06;;;;;;;;;;;24.40;96.00;24.30;99100.00;;;;334761;29;96627;-91
2023/07/28 00:32:17;;;;;;;;;;;24.40;96.10;24.20;99105.00;;;;338081;28;83402;-91
2023/07/28 00:32:29;;;;;;;;;;;24.40;96.40;24.20;99104.00;;;;338687;28;96954;-90
2023/07/28 00:32:41;;;;;;;;;;;24.40;96.40;24.20;99112.00;;;;335548;29;82304;-90
2023/07/28 00:32:53;;;;;;;;;;;24.30;96.30;24.10;99111.00;;;;337299;28;96346;-90
2023/07/28 00:33:05;;;;;;;;;;;24.30;96.30;24.10;99106.00;;;;336775;28;82358;-91
2023/07/28 00:33:17;;;;;;;;;;;24.30;96.50;24.10;99105.00;;;;335939;28;96599;-91
2023/07/28 00:33:28;;;;;;;;;;;24.30;96.40;24.10;99111.00;;;;339453;28;82491;-90
2023/07/28 00:33:41;;;;;;;;;;;24.30;96.40;24.00;99101.00;;;;333299;29;97349;-91
2023/07/28 00:33:53;;;;;;;;;;;24.30;96.50;24.00;99106.00;;;;336696;28;83512;-90
2023/07/28 00:34:05;;;;;;;;;;;24.30;96.60;24.00;99104.00;;;;337357;28;96699;-90
2023/07/28 00:34:17;;;;;;;;;;;24.30;96.60;24.10;99107.00;;;;336700;28;82616;-90
2023/07/28 00:34:29;;;;;;;;;;;24.30;96.60;24.10;99112.00;;;;336061;28;96669;-90
2023/07/28 00:34:41;;;;;;;;;;;24.30;96.60;24.20;99113.00;;;;339745;28;83312;-91
2023/07/28 00:34:53;;;;;;;;;;;24.30;96.40;24.30;99112.00;;;;339792;28;96325;-91
2023/07/28 00:35:05;;;;;;;;;;;24.30;96.30;24.30;99109.00;;;;338203;28;82494;-90
2023/07/28 00:35:17;;;;;;;;;;;24.30;96.40;24.30;99109.00;;;;335751;28;95447;-91
2023/07/28 00:35:29;;;;;;;;;;;24.30;96.50;24.20;99116.00;;;;336643;28;83396;-91
2023/07/28 00:35:41;;;;;;;;;;;24.30;96.70;24.20;99116.00;;;;338054;28;96569;-91
2023/07/28 00:35:52;;;;;;;;;;;24.30;96.70;24.30;99116.00;;;;337866;28;82553;-91
2023/07/28 00:36:04;;;;;;;;;;;24.30;96.50;24.40;99107.00;;;;337336;28;96448;-90
2023/07/28 00:36:16;;;;;;;;;;;24.30;96.40;24.30;99105.00;;;;336685;28;82571;-91
2023/07/28 00:36:28;;;;;;;;;;;24.30;96.60;24.30;99112.00;;;;336119;28;95381;-90
2023/07/28 00:36:40;;;;;;;;;;;24.30;96.70;24.40;99106.00;;;;337776;28;83308;-90
2023/07/28 00:36:52;;;;;;;;;;;24.30;96.50;24.50;99104.00;;;;332306;29;96815;-91
2023/07/28 00:37:04;;;;;;;;;;;24.30;96.60;24.50;99104.00;;;;336772;28;83420;-90
2023/07/28 00:37:16;;;;;;;;;;;24.30;96.50;24.50;99108.00;;;;337232;28;96250;-90
2023/07/28 00:37:28;;;;;;;;;;;24.30;96.70;24.40;99102.00;;;;338182;28;83359;-90
2023/07/28 00:37:40;;;;;;;;;;;24.30;96.70;24.40;99104.00;;;;335961;28;96394;-90
2023/07/28 00:37:52;;;;;;;;;;;24.30;96.60;24.40;99103.00;;;;338097;28;82532;-91
2023/07/28 00:38:03;;;;;;;;;;;24.30;96.50;24.50;99097.00;;;;337346;28;95160;-91
2023/07/28 00:38:15;;;;;;;;;;;24.40;96.60;24.50;99101.00;;;;337973;28;83482;-90
2023/07/28 00:38:27;;;;;;;;;;;24.40;96.50;24.50;99106.00;;;;337218;28;95645;-90
2023/07/28 00:38:39;;;;;;;;;;;24.40;96.40;24.50;99110.00;;;;336629;28;83457;-91
2023/07/28 00:38:50;;;;;;;;;;;24.40;96.70;24.40;99106.00;;;;335892;28;96501;-90
2023/07/28 00:39:02;;;;;;;;;;;24.40;96.60;24.30;99105.00;;;;340819;28;82562;-90
2023/07/28 00:39:14;;;;;;;;;;;24.40;96.70;24.20;99108.00;;;;337438;28;94981;-90
2023/07/28 00:39:26;;;;;;;;;;;24.40;96.90;24.40;99103.00;;;;338078;28;83423;-90
2023/07/28 00:39:38;;;;;;;;;;;24.40;96.60;24.30;99109.00;;;;339906;28;96147;-91
2023/07/28 00:39:49;;;;;;;;;;;24.40;96.60;24.30;99106.00;;;;339456;28;82544;-90
2023/07/28 00:40:01;;;;;;;;;;;24.40;96.80;24.40;99107.00;;;;337279;28;95981;-90
2023/07/28 00:40:13;;;;;;;;;;;24.40;96.70;24.50;99106.00;;;;338080;28;83411;-91
2023/07/28 00:40:25;;;;;;;;;;;24.40;96.50;24.50;99100.00;;;;337426;28;93848;-90
2023/07/28 00:40:36;;;;;;;;;;;24.40;96.50;24.50;99107.00;;;;338079;28;82623;-90
2023/07/28 00:40:48;;;;;;;;;;;24.40;96.50;24.40;99094.00;;;;337027;28;95419;-91
2023/07/28 00:41:00;;;;;;;;;;;24.40;96.60;24.30;99101.00;;;;338139;28;82627;-90
2023/07/28 00:41:12;;;;;;;;;;;24.40;96.80;24.30;99107.00;;;;338673;28;96414;-90
2023/07/28 00:41:24;;;;;;;;;;;24.40;97.00;24.40;99112.00;;;;338003;28;83506;-90
2023/07/28 00:41:35;;;;;;;;;;;24.40;96.80;24.40;99103.00;;;;338612;28;96192;-90
2023/07/28 00:41:47;;;;;;;;;;;24.40;96.60;24.50;99105.00;;;;336939;28;82467;-90
2023/07/28 00:41:59;;;;;;;;;;;24.40;96.60;24.40;99110.00;;;;338697;28;96565;-89
2023/07/28 00:42:10;;;;;;;;;;;24.40;96.60;24.40;99104.00;;;;339423;28;83427;-90
2023/07/28 00:42:22;;;;;;;;;;;24.40;96.40;24.40;99104.00;;;;339651;28;95574;-90
2023/07/28 00:42:34;;;;;;;;;;;24.40;96.40;24.40;99109.00;;;;338118;28;82738;-90
2023/07/28 00:42:48;;;;;;;;;;;24.40;96.60;24.40;99108.00;;;;334086;29;96727;-90
2023/07/28 00:42:59;;;;;;;;;;;24.40;96.70;24.40;99103.00;;;;336721;28;83551;-90
2023/07/28 00:43:11;;;;;;;;;;;24.40;96.60;24.30;99112.00;;;;336063;28;95484;-90
2023/07/28 00:43:23;;;;;;;;;;;24.40;96.80;24.40;99110.00;;;;335468;29;83470;-90
2023/07/28 00:43:35;;;;;;;;;;;24.40;96.80;24.30;99110.00;;;;335912;28;96145;-91
2023/07/28 00:43:47;;;;;;;;;;;24.40;96.80;24.20;99120.00;;;;336793;28;83408;-90
2023/07/28 00:43:58;;;;;;;;;;;24.40;97.00;24.30;99110.00;;;;336019;28;96836;-90
2023/07/28 00:44:10;;;;;;;;;;;24.40;96.80;24.30;99108.00;;;;332887;29;82563;-90
2023/07/28 00:44:22;;;;;;;;;;;24.40;97.00;24.20;99112.00;;;;337276;28;96548;-90
2023/07/28 00:44:34;;;;;;;;;;;24.40;97.10;24.00;99109.00;;;;336759;28;82547;-90
2023/07/28 00:44:45;;;;;;;;;;;24.40;97.20;24.10;99106.00;;;;334713;29;96416;-90
2023/07/28 00:44:57;;;;;;;;;;;24.30;97.20;24.10;99109.00;;;;335353;29;82613;-90
2023/07/28 00:45:09;;;;;;;;;;;24.30;97.20;24.10;99108.00;;;;337369;28;96340;-90
2023/07/28 00:45:21;;;;;;;;;;;24.30;97.10;24.10;99116.00;;;;335555;29;82535;-90
2023/07/28 00:45:33;;;;;;;;;;;24.30;97.10;24.10;99110.00;;;;335937;28;97686;-90
2023/07/28 00:45:45;;;;;;;;;;;24.30;97.00;24.10;99111.00;;;;335519;29;82553;-90
2023/07/28 00:45:57;;;;;;;;;;;24.30;97.20;24.00;99109.00;;;;338188;28;96894;-90
2023/07/28 00:46:09;;;;;;;;;;;24.30;97.40;24.00;99118.00;;;;339431;28;83400;-90
2023/07/28 00:46:21;;;;;;;;;;;24.20;97.40;24.00;99116.00;;;;335934;28;96178;-90
2023/07/28 00:46:33;;;;;;;;;;;24.20;97.30;24.10;99112.00;;;;334157;29;82567;-90
2023/07/28 00:46:45;;;;;;;;;;;24.20;97.20;24.10;99112.00;;;;334725;29;96327;-90
2023/07/28 00:46:57;;;;;;;;;;;24.20;97.10;24.10;99115.00;;;;337461;28;83593;-90
2023/07/28 00:47:09;;;;;;;;;;;24.20;97.30;24.10;99111.00;;;;337216;28;95563;-90
2023/07/28 00:47:21;;;;;;;;;;;24.20;97.40;24.00;99113.00;;;;338148;28;83351;-90
2023/07/28 00:47:33;;;;;;;;;;;24.20;97.40;24.20;99117.00;;;;338566;28;95154;-89
2023/07/28 00:47:45;;;;;;;;;;;24.20;97.30;24.10;99119.00;;;;338863;28;82458;-90
2023/07/28 00:47:57;;;;;;;;;;;24.20;97.40;24.00;99112.00;;;;335967;28;96693;-90
2023/07/28 00:48:13;;;;;;;;;;;24.20;97.50;24.00;99118.00;;;;336740;28;83444;-90
2023/07/28 00:48:25;;;;;;;;;;;24.20;97.60;24.10;99117.00;;;;337289;28;97037;-90
2023/07/28 00:48:37;;;;;;;;;;;24.20;97.50;24.20;99120.00;;;;336701;28;83496;-90
2023/07/28 00:48:49;;;;;;;;;;;24.20;97.60;24.10;99114.00;;;;336088;28;95570;-90
2023/07/28 00:49:01;;;;;;;;;;;24.20;97.60;24.20;99119.00;;;;339410;28;83352;-90
2023/07/28 00:49:13;;;;;;;;;;;24.20;97.50;24.30;99111.00;;;;332151;29;96624;-90
2023/07/28 00:49:24;;;;;;;;;;;24.20;97.40;24.30;99108.00;;;;336678;28;83433;-90
2023/07/28 00:49:37;;;;;;;;;;;24.20;97.60;24.30;99115.00;;;;335644;28;96676;-90
2023/07/28 00:49:48;;;;;;;;;;;24.20;97.50;24.30;99119.00;;;;336738;28;82400;-90
2023/07/28 00:50:01;;;;;;;;;;;24.20;97.60;24.30;99119.00;;;;337337;28;96477;-90
2023/07/28 00:50:12;;;;;;;;;;;24.20;97.50;24.40;99118.00;;;;339463;28;83384;-90
2023/07/28 00:50:25;;;;;;;;;;;24.20;97.40;24.40;99118.00;;;;335962;28;95755;-90
2023/07/28 00:50:36;;;;;;;;;;;24.20;97.40;24.30;99114.00;;;;335394;28;82367;-90
2023/07/28 00:50:48;;;;;;;;;;;24.20;97.50;24.40;99114.00;;;;333696;29;96605;-90
2023/07/28 00:51:00;;;;;;;;;;;24.20;97.40;24.40;99116.00;;;;338133;28;82518;-90
2023/07/28 00:51:12;;;;;;;;;;;24.20;97.40;24.30;99114.00;;;;337390;28;96195;-90
2023/07/28 00:51:24;;;;;;;;;;;24.20;97.50;24.30;99122.00;;;;338094;28;83384;-90
2023/07/28 00:51:36;;;;;;;;;;;24.30;97.60;24.20;99114.00;;;;335876;28;97739;-90
2023/07/28 00:51:48;;;;;;;;;;;24.20;97.60;24.20;99123.00;;;;339818;28;83687;-90
2023/07/28 00:51:59;;;;;;;;;;;24.20;97.50;24.20;99125.00;;;;338711;28;95290;-90
2023/07/28 00:52:11;;;;;;;;;;;24.20;97.60;24.00;99118.00;;;;338058;28;83409;-90
2023/07/28 00:52:23;;;;;;;;;;;24.20;97.70;24.10;99122.00;;;;337364;28;95166;-90
2023/07/28 00:52:35;;;;;;;;;;;24.20;97.70;24.20;99120.00;;;;336738;28;82580;-90
2023/07/28 00:52:47;;;;;;;;;;;24.20;97.70;24.10;99122.00;;;;334738;29;95494;-90
2023/07/28 00:52:58;;;;;;;;;;;24.20;97.80;24.20;99119.00;;;;337991;28;83480;-90
2023/07/28 00:53:10;;;;;;;;;;;24.20;97.80;24.20;99117.00;;;;335977;28;96497;-90
2023/07/28 00:53:22;;;;;;;;;;;24.20;97.80;24.20;99107.00;;;;336798;28;83605;-90
2023/07/28 00:53:34;;;;;;;;;;;24.20;97.70;24.10;99117.00;;;;335840;28;97321;-90
2023/07/28 00:53:46;;;;;;;;;;;24.20;97.80;24.20;99123.00;;;;336740;28;83406;-90
2023/07/28 00:53:59;;;;;;;;;;;24.20;97.70;24.10;99117.00;;;;336007;28;94970;-90
2023/07/28 00:54:11;;;;;;;;;;;24.20;97.70;24.10;99116.00;;;;336821;28;83362;-90
2023/07/28 00:54:22;;;;;;;;;;;24.20;97.80;24.00;99119.00;;;;337243;28;96613;-90
2023/07/28 00:54:34;;;;;;;;;;;24.20;98.00;24.00;99117.00;;;;338061;28;83518;-90
2023/07/28 00:54:46;;;;;;;;;;;24.20;98.00;24.10;99118.00;;;;336044;28;95310;-90
2023/07/28 00:54:58;;;;;;;;;;;24.20;97.90;24.10;99124.00;;;;336735;28;82525;-90
2023/07/28 00:55:10;;;;;;;;;;;24.20;98.10;24.10;99124.00;;;;338657;28;95276;-90
2023/07/28 00:55:22;;;;;;;;;;;24.20;98.00;24.00;99123.00;;;;334210;29;82523;-90
2023/07/28 00:55:34;;;;;;;;;;;24.20;98.00;24.00;99121.00;;;;337169;28;96319;-90
2023/07/28 00:55:45;;;;;;;;;;;24.10;98.10;24.00;99120.00;;;;338073;28;83418;-89
2023/07/28 00:55:57;;;;;;;;;;;24.10;98.20;24.00;99121.00;;;;337270;28;96387;-90
2023/07/28 00:56:09;;;;;;;;;;;24.10;98.40;24.10;99124.00;;;;339403;28;83434;-89
2023/07/28 00:56:21;;;;;;;;;;;24.10;98.20;24.10;99116.00;;;;335945;28;96880;-90
2023/07/28 00:56:33;;;;;;;;;;;24.10;98.10;24.10;99120.00;;;;335430;29;84085;-90
2023/07/28 00:56:45;;;;;;;;;;;24.10;98.10;24.10;99120.00;;;;336059;28;96731;-90
2023/07/28 00:56:57;;;;;;;;;;;24.10;98.30;24.10;99121.00;;;;337986;28;82541;-90
2023/07/28 00:57:09;;;;;;;;;;;24.10;98.20;24.10;99124.00;;;;338731;28;95248;-90
2023/07/28 00:57:21;;;;;;;;;;;24.10;98.10;24.10;99120.00;;;;338152;28;82515;-90
2023/07/28 00:57:33;;;;;;;;;;;24.10;98.30;24.10;99124.00;;;;339854;28;96320;-90
2023/07/28 00:57:45;;;;;;;;;;;24.10;98.20;24.20;99120.00;;;;337571;28;83490;-90
2023/07/28 00:57:57;;;;;;;;;;;24.10;98.20;24.00;99114.00;;;;337273;28;92969;-90
2023/07/28 00:58:09;;;;;;;;;;;24.10;98.40;23.90;99123.00;;;;338076;28;83387;-90
2023/07/28 00:58:21;;;;;;;;;;;24.10;98.50;23.90;99124.00;;;;337341;28;92676;-90
2023/07/28 00:58:33;;;;;;;;;;;24.00;98.60;24.00;99123.00;;;;336673;28;82576;-90
2023/07/28 00:58:44;;;;;;;;;;;24.10;98.50;23.90;99123.00;;;;334738;29;96430;-90
2023/07/28 00:58:56;;;;;;;;;;;24.10;98.60;24.00;99124.00;;;;336751;28;82529;-90
2023/07/28 00:59:08;;;;;;;;;;;24.10;98.60;24.00;99122.00;;;;337247;28;96700;-90
2023/07/28 00:59:20;;;;;;;;;;;24.00;98.50;24.20;99130.00;;;;335492;29;82526;-90